sensor_id;sensor_type;location;lat;lon;timestamp;P1;durP1;ratioP1;P2;durP2;ratioP2
58896;SDS011;44677;52.378;10.400;2023-12-20T00:01:29;7.60;;;5.60;;
58896;SDS011;44677;52.378;10.400;2023-12-20T00:03:54;6.60;;;5.60;;
58896;SDS011;44677;52.378;10.400;2023-12-20T00:06:19;4.10;;;3.60;;
58896;SDS011;44677;52.378;10.400;2023-12-20T00:08:45;4.20;;;3.30;;
58896;SDS011;44677;52.378;10.400;2023-12-20T00:11:10;4.90;;;2.60;;
58896;SDS011;44677;52.378;10.400;2023-12-20T00:13:35;2.70;;;2.30;;
58896;SDS011;44677;52.378;10.400;2023-12-20T00:16:01;6.80;;;2.30;;
58896;SDS011;44677;52.378;10.400;2023-12-20T00:18:26;4.80;;;2.20;;
58896;SDS011;44677;52.378;10.400;2023-12-20T00:20:51;5.90;;;2.60;;
58896;SDS011;44677;52.378;10.400;2023-12-20T00:23:17;3.70;;;1.50;;
58896;SDS011;44677;52.378;10.400;2023-12-20T00:25:42;2.80;;;2.00;;
58896;SDS011;44677;52.378;10.400;2023-12-20T00:28:07;2.80;;;1.60;;
58896;SDS011;44677;52.378;10.400;2023-12-20T00:30:33;4.50;;;2.10;;
58896;SDS011;44677;52.378;10.400;2023-12-20T00:32:58;4.20;;;2.30;;
58896;SDS011;44677;52.378;10.400;2023-12-20T00:35:24;4.90;;;1.90;;
58896;SDS011;44677;52.378;10.400;2023-12-20T00:37:49;4.10;;;2.00;;
58896;SDS011;44677;52.378;10.400;2023-12-20T00:40:15;5.80;;;2.00;;
58896;SDS011;44677;52.378;10.400;2023-12-20T00:42:40;5.80;;;2.20;;
58896;SDS011;44677;52.378;10.400;2023-12-20T00:45:06;5.20;;;2.10;;
58896;SDS011;44677;52.378;10.400;2023-12-20T00:47:33;5.90;;;2.00;;
58896;SDS011;44677;52.378;10.400;2023-12-20T00:49:58;6.90;;;2.30;;
58896;SDS011;44677;52.378;10.400;2023-12-20T00:52:24;6.40;;;2.10;;
58896;SDS011;44677;52.378;10.400;2023-12-20T00:54:50;7.40;;;1.90;;
58896;SDS011;44677;52.378;10.400;2023-12-20T00:57:15;3.90;;;1.90;;
58896;SDS011;44677;52.378;10.400;2023-12-20T00:59:41;10.00;;;2.20;;
58896;SDS011;44677;52.378;10.400;2023-12-20T01:02:06;8.50;;;2.40;;
58896;SDS011;44677;52.378;10.400;2023-12-20T01:04:32;7.00;;;2.00;;
58896;SDS011;44677;52.378;10.400;2023-12-20T01:06:57;8.00;;;2.10;;
58896;SDS011;44677;52.378;10.400;2023-12-20T01:09:22;5.60;;;1.90;;
58896;SDS011;44677;52.378;10.400;2023-12-20T01:11:54;8.80;;;1.90;;
58896;SDS011;44677;52.378;10.400;2023-12-20T01:14:19;8.10;;;1.90;;
58896;SDS011;44677;52.378;10.400;2023-12-20T01:16:45;5.70;;;1.70;;
58896;SDS011;44677;52.378;10.400;2023-12-20T01:19:10;8.10;;;2.30;;
58896;SDS011;44677;52.378;10.400;2023-12-20T01:21:36;7.50;;;2.60;;
58896;SDS011;44677;52.378;10.400;2023-12-20T01:24:01;7.90;;;3.80;;
58896;SDS011;44677;52.378;10.400;2023-12-20T01:26:26;6.30;;;3.30;;
58896;SDS011;44677;52.378;10.400;2023-12-20T01:28:52;7.00;;;3.20;;
58896;SDS011;44677;52.378;10.400;2023-12-20T01:31:18;6.20;;;3.00;;
58896;SDS011;44677;52.378;10.400;2023-12-20T01:33:43;8.40;;;4.50;;
58896;SDS011;44677;52.378;10.400;2023-12-20T01:36:09;7.00;;;4.40;;
58896;SDS011;44677;52.378;10.400;2023-12-20T01:38:34;8.40;;;4.80;;
58896;SDS011;44677;52.378;10.400;2023-12-20T01:41:00;10.70;;;4.70;;
58896;SDS011;44677;52.378;10.400;2023-12-20T01:43:25;8.10;;;4.30;;
58896;SDS011;44677;52.378;10.400;2023-12-20T01:45:50;8.50;;;4.20;;
58896;SDS011;44677;52.378;10.400;2023-12-20T01:48:16;11.80;;;4.40;;
58896;SDS011;44677;52.378;10.400;2023-12-20T01:50:43;13.30;;;4.90;;
58896;SDS011;44677;52.378;10.400;2023-12-20T01:53:09;13.00;;;4.30;;
58896;SDS011;44677;52.378;10.400;2023-12-20T01:55:36;10.80;;;3.40;;
58896;SDS011;44677;52.378;10.400;2023-12-20T01:58:05;12.60;;;3.80;;
58896;SDS011;44677;52.378;10.400;2023-12-20T02:00:31;8.30;;;4.00;;
58896;SDS011;44677;52.378;10.400;2023-12-20T02:02:56;12.20;;;3.40;;
58896;SDS011;44677;52.378;10.400;2023-12-20T02:05:29;10.60;;;3.50;;
58896;SDS011;44677;52.378;10.400;2023-12-20T02:07:55;11.00;;;3.20;;
58896;SDS011;44677;52.378;10.400;2023-12-20T02:10:21;10.20;;;3.30;;
58896;SDS011;44677;52.378;10.400;2023-12-20T02:12:46;10.10;;;3.60;;
58896;SDS011;44677;52.378;10.400;2023-12-20T02:15:12;9.50;;;2.80;;
58896;SDS011;44677;52.378;10.400;2023-12-20T02:17:38;10.70;;;3.00;;
58896;SDS011;44677;52.378;10.400;2023-12-20T02:20:04;10.00;;;3.10;;
58896;SDS011;44677;52.378;10.400;2023-12-20T02:24:56;8.10;;;2.60;;
58896;SDS011;44677;52.378;10.400;2023-12-20T02:27:21;5.60;;;2.80;;
58896;SDS011;44677;52.378;10.400;2023-12-20T02:29:48;7.30;;;2.80;;
58896;SDS011;44677;52.378;10.400;2023-12-20T02:32:14;7.00;;;3.10;;
58896;SDS011;44677;52.378;10.400;2023-12-20T02:34:41;7.80;;;2.90;;
58896;SDS011;44677;52.378;10.400;2023-12-20T02:37:06;12.40;;;3.60;;
58896;SDS011;44677;52.378;10.400;2023-12-20T02:39:31;7.30;;;2.70;;
58896;SDS011;44677;52.378;10.400;2023-12-20T02:41:58;5.40;;;2.60;;
58896;SDS011;44677;52.378;10.400;2023-12-20T02:44:24;8.10;;;2.70;;
58896;SDS011;44677;52.378;10.400;2023-12-20T02:46:49;9.40;;;3.10;;
58896;SDS011;44677;52.378;10.400;2023-12-20T02:49:15;8.80;;;3.00;;
58896;SDS011;44677;52.378;10.400;2023-12-20T02:51:40;10.20;;;2.90;;
58896;SDS011;44677;52.378;10.400;2023-12-20T02:54:06;14.60;;;2.70;;
58896;SDS011;44677;52.378;10.400;2023-12-20T02:56:32;11.30;;;4.50;;
58896;SDS011;44677;52.378;10.400;2023-12-20T02:58:58;10.50;;;3.80;;
58896;SDS011;44677;52.378;10.400;2023-12-20T03:01:23;7.50;;;2.70;;
58896;SDS011;44677;52.378;10.400;2023-12-20T03:03:49;11.40;;;3.60;;
58896;SDS011;44677;52.378;10.400;2023-12-20T03:06:18;9.70;;;2.90;;
58896;SDS011;44677;52.378;10.400;2023-12-20T03:08:44;10.40;;;3.50;;
58896;SDS011;44677;52.378;10.400;2023-12-20T03:11:10;11.10;;;2.60;;
58896;SDS011;44677;52.378;10.400;2023-12-20T03:13:35;12.50;;;2.90;;
58896;SDS011;44677;52.378;10.400;2023-12-20T03:16:00;9.40;;;3.00;;
58896;SDS011;44677;52.378;10.400;2023-12-20T03:18:26;11.70;;;3.30;;
58896;SDS011;44677;52.378;10.400;2023-12-20T03:20:53;9.40;;;2.80;;
58896;SDS011;44677;52.378;10.400;2023-12-20T03:23:18;8.10;;;2.90;;
58896;SDS011;44677;52.378;10.400;2023-12-20T03:25:44;12.70;;;3.10;;
58896;SDS011;44677;52.378;10.400;2023-12-20T03:28:09;11.50;;;3.60;;
58896;SDS011;44677;52.378;10.400;2023-12-20T03:30:34;9.80;;;2.90;;
58896;SDS011;44677;52.378;10.400;2023-12-20T03:33:00;5.90;;;2.10;;
58896;SDS011;44677;52.378;10.400;2023-12-20T03:35:25;12.20;;;2.30;;
58896;SDS011;44677;52.378;10.400;2023-12-20T03:37:51;7.60;;;2.00;;
58896;SDS011;44677;52.378;10.400;2023-12-20T03:40:16;8.50;;;2.10;;
58896;SDS011;44677;52.378;10.400;2023-12-20T03:42:41;4.60;;;1.90;;
58896;SDS011;44677;52.378;10.400;2023-12-20T03:45:07;6.50;;;1.80;;
58896;SDS011;44677;52.378;10.400;2023-12-20T03:47:33;6.70;;;2.20;;
58896;SDS011;44677;52.378;10.400;2023-12-20T03:49:58;4.20;;;2.20;;
58896;SDS011;44677;52.378;10.400;2023-12-20T03:52:23;9.30;;;2.20;;
58896;SDS011;44677;52.378;10.400;2023-12-20T03:54:49;4.40;;;2.10;;
58896;SDS011;44677;52.378;10.400;2023-12-20T03:57:14;8.90;;;2.20;;
58896;SDS011;44677;52.378;10.400;2023-12-20T03:59:39;8.50;;;2.20;;
58896;SDS011;44677;52.378;10.400;2023-12-20T04:02:05;7.00;;;2.10;;
58896;SDS011;44677;52.378;10.400;2023-12-20T04:04:31;8.80;;;2.00;;
58896;SDS011;44677;52.378;10.400;2023-12-20T04:06:56;5.70;;;2.00;;
58896;SDS011;44677;52.378;10.400;2023-12-20T04:09:22;4.80;;;2.20;;
58896;SDS011;44677;52.378;10.400;2023-12-20T04:11:47;7.10;;;2.00;;
58896;SDS011;44677;52.378;10.400;2023-12-20T04:14:12;6.00;;;2.30;;
58896;SDS011;44677;52.378;10.400;2023-12-20T04:16:38;5.10;;;1.80;;
58896;SDS011;44677;52.378;10.400;2023-12-20T04:19:04;5.10;;;2.10;;
58896;SDS011;44677;52.378;10.400;2023-12-20T04:21:29;6.30;;;1.60;;
58896;SDS011;44677;52.378;10.400;2023-12-20T04:23:55;6.80;;;1.90;;
58896;SDS011;44677;52.378;10.400;2023-12-20T04:26:20;10.70;;;2.10;;
58896;SDS011;44677;52.378;10.400;2023-12-20T04:28:46;6.50;;;1.70;;
58896;SDS011;44677;52.378;10.400;2023-12-20T04:31:11;5.10;;;1.60;;
58896;SDS011;44677;52.378;10.400;2023-12-20T04:33:36;6.80;;;1.60;;
58896;SDS011;44677;52.378;10.400;2023-12-20T04:36:02;8.80;;;2.10;;
58896;SDS011;44677;52.378;10.400;2023-12-20T04:38:28;6.50;;;1.80;;
58896;SDS011;44677;52.378;10.400;2023-12-20T04:40:53;8.60;;;2.00;;
58896;SDS011;44677;52.378;10.400;2023-12-20T04:43:19;10.60;;;2.20;;
58896;SDS011;44677;52.378;10.400;2023-12-20T04:45:44;5.30;;;1.90;;
58896;SDS011;44677;52.378;10.400;2023-12-20T04:48:09;6.30;;;2.10;;
58896;SDS011;44677;52.378;10.400;2023-12-20T04:50:35;6.70;;;1.50;;
58896;SDS011;44677;52.378;10.400;2023-12-20T04:53:00;11.00;;;2.00;;
58896;SDS011;44677;52.378;10.400;2023-12-20T04:55:26;7.50;;;1.70;;
58896;SDS011;44677;52.378;10.400;2023-12-20T04:57:51;7.30;;;1.90;;
58896;SDS011;44677;52.378;10.400;2023-12-20T05:00:16;9.60;;;1.90;;
58896;SDS011;44677;52.378;10.400;2023-12-20T05:02:42;10.10;;;2.70;;
58896;SDS011;44677;52.378;10.400;2023-12-20T05:05:07;4.20;;;1.50;;
58896;SDS011;44677;52.378;10.400;2023-12-20T05:07:33;5.70;;;2.20;;
58896;SDS011;44677;52.378;10.400;2023-12-20T05:09:58;9.40;;;2.00;;
58896;SDS011;44677;52.378;10.400;2023-12-20T05:12:24;7.90;;;2.00;;
58896;SDS011;44677;52.378;10.400;2023-12-20T05:14:51;6.40;;;2.30;;
58896;SDS011;44677;52.378;10.400;2023-12-20T05:17:17;11.00;;;2.70;;
58896;SDS011;44677;52.378;10.400;2023-12-20T05:19:42;7.40;;;2.00;;
58896;SDS011;44677;52.378;10.400;2023-12-20T05:22:08;10.90;;;2.10;;
58896;SDS011;44677;52.378;10.400;2023-12-20T05:24:33;9.20;;;2.30;;
58896;SDS011;44677;52.378;10.400;2023-12-20T05:26:58;5.60;;;1.90;;
58896;SDS011;44677;52.378;10.400;2023-12-20T05:29:24;4.40;;;2.10;;
58896;SDS011;44677;52.378;10.400;2023-12-20T05:31:49;10.10;;;2.10;;
58896;SDS011;44677;52.378;10.400;2023-12-20T05:34:14;7.40;;;2.40;;
58896;SDS011;44677;52.378;10.400;2023-12-20T05:36:40;7.60;;;2.10;;
58896;SDS011;44677;52.378;10.400;2023-12-20T05:39:06;7.70;;;2.80;;
58896;SDS011;44677;52.378;10.400;2023-12-20T05:41:33;10.20;;;3.10;;
58896;SDS011;44677;52.378;10.400;2023-12-20T05:43:58;11.70;;;2.40;;
58896;SDS011;44677;52.378;10.400;2023-12-20T05:46:24;10.20;;;3.00;;
58896;SDS011;44677;52.378;10.400;2023-12-20T05:48:50;12.10;;;2.50;;
58896;SDS011;44677;52.378;10.400;2023-12-20T05:51:16;8.20;;;2.30;;
58896;SDS011;44677;52.378;10.400;2023-12-20T05:53:42;11.10;;;2.50;;
58896;SDS011;44677;52.378;10.400;2023-12-20T05:56:07;7.00;;;2.00;;
58896;SDS011;44677;52.378;10.400;2023-12-20T05:58:33;13.60;;;2.70;;
58896;SDS011;44677;52.378;10.400;2023-12-20T06:00:58;8.80;;;2.10;;
58896;SDS011;44677;52.378;10.400;2023-12-20T06:03:24;8.10;;;2.50;;
58896;SDS011;44677;52.378;10.400;2023-12-20T06:05:49;12.10;;;2.40;;
58896;SDS011;44677;52.378;10.400;2023-12-20T06:08:14;10.50;;;2.60;;
58896;SDS011;44677;52.378;10.400;2023-12-20T06:10:40;7.40;;;2.30;;
58896;SDS011;44677;52.378;10.400;2023-12-20T06:13:05;12.40;;;2.30;;
58896;SDS011;44677;52.378;10.400;2023-12-20T06:15:32;8.10;;;2.30;;
58896;SDS011;44677;52.378;10.400;2023-12-20T06:17:58;9.40;;;2.60;;
58896;SDS011;44677;52.378;10.400;2023-12-20T06:20:23;10.60;;;3.10;;
58896;SDS011;44677;52.378;10.400;2023-12-20T06:22:49;8.60;;;2.30;;
58896;SDS011;44677;52.378;10.400;2023-12-20T06:25:14;8.40;;;2.90;;
58896;SDS011;44677;52.378;10.400;2023-12-20T06:27:40;10.00;;;2.60;;
58896;SDS011;44677;52.378;10.400;2023-12-20T06:30:06;14.50;;;2.60;;
58896;SDS011;44677;52.378;10.400;2023-12-20T06:32:34;11.10;;;3.00;;
58896;SDS011;44677;52.378;10.400;2023-12-20T06:35:00;9.80;;;2.30;;
58896;SDS011;44677;52.378;10.400;2023-12-20T06:37:25;7.80;;;2.90;;
58896;SDS011;44677;52.378;10.400;2023-12-20T06:39:50;7.20;;;2.20;;
58896;SDS011;44677;52.378;10.400;2023-12-20T06:42:16;11.40;;;3.10;;
58896;SDS011;44677;52.378;10.400;2023-12-20T06:44:41;7.20;;;2.40;;
58896;SDS011;44677;52.378;10.400;2023-12-20T06:47:06;8.10;;;2.50;;
58896;SDS011;44677;52.378;10.400;2023-12-20T06:49:32;6.80;;;2.30;;
58896;SDS011;44677;52.378;10.400;2023-12-20T06:51:57;8.30;;;2.60;;
58896;SDS011;44677;52.378;10.400;2023-12-20T06:54:23;10.10;;;2.10;;
58896;SDS011;44677;52.378;10.400;2023-12-20T06:56:48;6.90;;;2.10;;
58896;SDS011;44677;52.378;10.400;2023-12-20T06:59:13;12.70;;;2.70;;
58896;SDS011;44677;52.378;10.400;2023-12-20T07:01:39;10.80;;;2.60;;
58896;SDS011;44677;52.378;10.400;2023-12-20T07:04:04;10.10;;;3.20;;
58896;SDS011;44677;52.378;10.400;2023-12-20T07:06:30;8.20;;;2.20;;
58896;SDS011;44677;52.378;10.400;2023-12-20T07:08:55;10.50;;;2.90;;
58896;SDS011;44677;52.378;10.400;2023-12-20T07:11:20;5.70;;;2.80;;
58896;SDS011;44677;52.378;10.400;2023-12-20T07:13:46;9.00;;;2.80;;
58896;SDS011;44677;52.378;10.400;2023-12-20T07:16:11;9.60;;;2.90;;
58896;SDS011;44677;52.378;10.400;2023-12-20T07:18:37;8.70;;;2.70;;
58896;SDS011;44677;52.378;10.400;2023-12-20T07:21:02;9.70;;;2.80;;
58896;SDS011;44677;52.378;10.400;2023-12-20T07:23:28;9.00;;;2.90;;
58896;SDS011;44677;52.378;10.400;2023-12-20T07:25:54;8.40;;;2.80;;
58896;SDS011;44677;52.378;10.400;2023-12-20T07:28:19;9.10;;;2.40;;
58896;SDS011;44677;52.378;10.400;2023-12-20T07:30:44;9.70;;;3.10;;
58896;SDS011;44677;52.378;10.400;2023-12-20T07:33:10;9.30;;;2.60;;
58896;SDS011;44677;52.378;10.400;2023-12-20T07:35:37;7.80;;;2.60;;
58896;SDS011;44677;52.378;10.400;2023-12-20T07:38:03;12.60;;;2.90;;
58896;SDS011;44677;52.378;10.400;2023-12-20T07:40:28;11.40;;;3.50;;
58896;SDS011;44677;52.378;10.400;2023-12-20T07:42:54;12.00;;;3.10;;
58896;SDS011;44677;52.378;10.400;2023-12-20T07:45:19;11.30;;;2.80;;
58896;SDS011;44677;52.378;10.400;2023-12-20T07:47:45;10.40;;;3.00;;
58896;SDS011;44677;52.378;10.400;2023-12-20T07:50:10;10.10;;;3.30;;
58896;SDS011;44677;52.378;10.400;2023-12-20T07:52:35;7.50;;;2.40;;
58896;SDS011;44677;52.378;10.400;2023-12-20T07:55:01;14.20;;;3.70;;
58896;SDS011;44677;52.378;10.400;2023-12-20T07:57:29;11.40;;;3.70;;
58896;SDS011;44677;52.378;10.400;2023-12-20T07:59:55;10.90;;;2.70;;
58896;SDS011;44677;52.378;10.400;2023-12-20T08:02:21;9.40;;;2.70;;
58896;SDS011;44677;52.378;10.400;2023-12-20T08:04:46;9.40;;;2.60;;
58896;SDS011;44677;52.378;10.400;2023-12-20T08:07:12;8.00;;;2.60;;
58896;SDS011;44677;52.378;10.400;2023-12-20T08:09:37;11.60;;;2.70;;
58896;SDS011;44677;52.378;10.400;2023-12-20T08:12:02;9.40;;;2.70;;
58896;SDS011;44677;52.378;10.400;2023-12-20T08:14:28;8.10;;;2.40;;
58896;SDS011;44677;52.378;10.400;2023-12-20T08:16:53;11.20;;;2.90;;
58896;SDS011;44677;52.378;10.400;2023-12-20T08:19:19;8.90;;;3.70;;
58896;SDS011;44677;52.378;10.400;2023-12-20T08:21:44;10.30;;;3.00;;
58896;SDS011;44677;52.378;10.400;2023-12-20T08:24:09;14.40;;;3.30;;
58896;SDS011;44677;52.378;10.400;2023-12-20T08:26:35;8.70;;;3.50;;
58896;SDS011;44677;52.378;10.400;2023-12-20T08:29:00;13.90;;;3.40;;
58896;SDS011;44677;52.378;10.400;2023-12-20T08:31:25;12.10;;;3.00;;
58896;SDS011;44677;52.378;10.400;2023-12-20T08:33:51;15.70;;;3.00;;
58896;SDS011;44677;52.378;10.400;2023-12-20T08:36:19;9.50;;;2.60;;
58896;SDS011;44677;52.378;10.400;2023-12-20T08:38:46;12.50;;;3.00;;
58896;SDS011;44677;52.378;10.400;2023-12-20T08:41:12;9.50;;;2.50;;
58896;SDS011;44677;52.378;10.400;2023-12-20T08:43:38;8.40;;;2.70;;
58896;SDS011;44677;52.378;10.400;2023-12-20T08:48:31;10.40;;;2.50;;
58896;SDS011;44677;52.378;10.400;2023-12-20T08:50:56;8.70;;;2.60;;
58896;SDS011;44677;52.378;10.400;2023-12-20T08:53:21;7.90;;;2.90;;
58896;SDS011;44677;52.378;10.400;2023-12-20T08:55:50;9.90;;;2.90;;
58896;SDS011;44677;52.378;10.400;2023-12-20T08:58:15;16.20;;;3.20;;
58896;SDS011;44677;52.378;10.400;2023-12-20T09:00:41;10.90;;;3.20;;
58896;SDS011;44677;52.378;10.400;2023-12-20T09:03:06;10.90;;;3.40;;
58896;SDS011;44677;52.378;10.400;2023-12-20T09:05:31;12.00;;;3.60;;
58896;SDS011;44677;52.378;10.400;2023-12-20T09:07:57;14.80;;;3.40;;
58896;SDS011;44677;52.378;10.400;2023-12-20T09:10:22;8.80;;;2.90;;
58896;SDS011;44677;52.378;10.400;2023-12-20T09:12:51;7.40;;;3.10;;
58896;SDS011;44677;52.378;10.400;2023-12-20T09:15:19;10.90;;;3.30;;
58896;SDS011;44677;52.378;10.400;2023-12-20T09:17:45;9.70;;;3.10;;
58896;SDS011;44677;52.378;10.400;2023-12-20T09:20:10;9.00;;;2.90;;
58896;SDS011;44677;52.378;10.400;2023-12-20T09:22:35;10.50;;;2.90;;
58896;SDS011;44677;52.378;10.400;2023-12-20T09:25:03;12.00;;;3.30;;
58896;SDS011;44677;52.378;10.400;2023-12-20T09:27:29;14.50;;;3.50;;
58896;SDS011;44677;52.378;10.400;2023-12-20T09:29:55;10.80;;;3.30;;
58896;SDS011;44677;52.378;10.400;2023-12-20T09:32:20;11.50;;;3.40;;
58896;SDS011;44677;52.378;10.400;2023-12-20T09:34:46;14.00;;;4.00;;
58896;SDS011;44677;52.378;10.400;2023-12-20T09:37:13;11.40;;;3.10;;
58896;SDS011;44677;52.378;10.400;2023-12-20T09:39:38;9.70;;;3.00;;
58896;SDS011;44677;52.378;10.400;2023-12-20T09:42:04;8.60;;;4.00;;
58896;SDS011;44677;52.378;10.400;2023-12-20T09:44:30;7.30;;;3.50;;
58896;SDS011;44677;52.378;10.400;2023-12-20T09:46:56;7.50;;;3.40;;
58896;SDS011;44677;52.378;10.400;2023-12-20T09:49:22;9.60;;;3.20;;
58896;SDS011;44677;52.378;10.400;2023-12-20T09:51:48;12.00;;;3.70;;
58896;SDS011;44677;52.378;10.400;2023-12-20T09:54:18;9.30;;;3.00;;
58896;SDS011;44677;52.378;10.400;2023-12-20T09:56:44;7.60;;;3.00;;
58896;SDS011;44677;52.378;10.400;2023-12-20T09:59:09;6.90;;;3.20;;
58896;SDS011;44677;52.378;10.400;2023-12-20T10:01:35;9.60;;;3.00;;
58896;SDS011;44677;52.378;10.400;2023-12-20T10:04:03;8.80;;;3.10;;
58896;SDS011;44677;52.378;10.400;2023-12-20T10:06:33;8.70;;;3.30;;
58896;SDS011;44677;52.378;10.400;2023-12-20T10:08:59;10.20;;;3.20;;
58896;SDS011;44677;52.378;10.400;2023-12-20T10:11:27;8.80;;;3.20;;
58896;SDS011;44677;52.378;10.400;2023-12-20T10:17:12;10.30;;;2.90;;
58896;SDS011;44677;52.378;10.400;2023-12-20T10:20:00;8.10;;;3.10;;
58896;SDS011;44677;52.378;10.400;2023-12-20T10:22:37;7.30;;;2.80;;
58896;SDS011;44677;52.378;10.400;2023-12-20T10:25:03;10.30;;;3.30;;
58896;SDS011;44677;52.378;10.400;2023-12-20T10:27:31;6.20;;;2.60;;
58896;SDS011;44677;52.378;10.400;2023-12-20T10:29:58;6.60;;;2.80;;
58896;SDS011;44677;52.378;10.400;2023-12-20T10:32:24;12.80;;;3.20;;
58896;SDS011;44677;52.378;10.400;2023-12-20T10:34:52;6.70;;;3.20;;
58896;SDS011;44677;52.378;10.400;2023-12-20T10:37:18;11.40;;;2.90;;
58896;SDS011;44677;52.378;10.400;2023-12-20T10:39:50;8.10;;;3.10;;
58896;SDS011;44677;52.378;10.400;2023-12-20T10:42:21;10.50;;;3.80;;
58896;SDS011;44677;52.378;10.400;2023-12-20T10:44:47;8.60;;;2.50;;
58896;SDS011;44677;52.378;10.400;2023-12-20T10:47:14;9.50;;;3.00;;
58896;SDS011;44677;52.378;10.400;2023-12-20T10:49:40;15.50;;;3.20;;
58896;SDS011;44677;52.378;10.400;2023-12-20T10:52:05;6.60;;;3.80;;
58896;SDS011;44677;52.378;10.400;2023-12-20T10:54:32;13.00;;;2.70;;
58896;SDS011;44677;52.378;10.400;2023-12-20T10:56:58;9.90;;;2.90;;
58896;SDS011;44677;52.378;10.400;2023-12-20T10:59:24;9.10;;;2.80;;
58896;SDS011;44677;52.378;10.400;2023-12-20T11:01:50;8.70;;;2.80;;
58896;SDS011;44677;52.378;10.400;2023-12-20T11:04:24;11.90;;;3.30;;
58896;SDS011;44677;52.378;10.400;2023-12-20T11:07:47;10.60;;;3.00;;
58896;SDS011;44677;52.378;10.400;2023-12-20T11:17:26;9.70;;;3.00;;
58896;SDS011;44677;52.378;10.400;2023-12-20T11:20:31;10.90;;;2.70;;
58896;SDS011;44677;52.378;10.400;2023-12-20T11:26:02;11.20;;;3.20;;
58896;SDS011;44677;52.378;10.400;2023-12-20T11:28:30;8.30;;;3.10;;
58896;SDS011;44677;52.378;10.400;2023-12-20T11:30:57;7.00;;;2.80;;
58896;SDS011;44677;52.378;10.400;2023-12-20T11:33:40;10.60;;;2.70;;
58896;SDS011;44677;52.378;10.400;2023-12-20T11:36:13;8.40;;;2.40;;
58896;SDS011;44677;52.378;10.400;2023-12-20T11:38:57;13.40;;;3.70;;
58896;SDS011;44677;52.378;10.400;2023-12-20T11:41:26;8.90;;;2.80;;
58896;SDS011;44677;52.378;10.400;2023-12-20T11:44:05;9.90;;;3.20;;
58896;SDS011;44677;52.378;10.400;2023-12-20T11:46:37;5.20;;;2.50;;
58896;SDS011;44677;52.378;10.400;2023-12-20T11:49:03;5.80;;;2.80;;
58896;SDS011;44677;52.378;10.400;2023-12-20T11:54:32;5.70;;;2.60;;
58896;SDS011;44677;52.378;10.400;2023-12-20T11:57:03;7.70;;;2.70;;
58896;SDS011;44677;52.378;10.400;2023-12-20T12:06:10;3.40;;;1.80;;
58896;SDS011;44677;52.378;10.400;2023-12-20T12:08:41;5.20;;;2.20;;
58896;SDS011;44677;52.378;10.400;2023-12-20T12:11:52;4.80;;;1.90;;
58896;SDS011;44677;52.378;10.400;2023-12-20T12:17:13;4.30;;;2.20;;
58896;SDS011;44677;52.378;10.400;2023-12-20T12:23:05;6.60;;;1.60;;
58896;SDS011;44677;52.378;10.400;2023-12-20T12:25:38;3.70;;;1.40;;
58896;SDS011;44677;52.378;10.400;2023-12-20T12:28:04;5.10;;;2.10;;
58896;SDS011;44677;52.378;10.400;2023-12-20T12:30:30;6.30;;;2.00;;
58896;SDS011;44677;52.378;10.400;2023-12-20T12:32:55;3.60;;;1.60;;
58896;SDS011;44677;52.378;10.400;2023-12-20T12:37:48;2.80;;;1.30;;
58896;SDS011;44677;52.378;10.400;2023-12-20T12:40:14;3.60;;;1.60;;
58896;SDS011;44677;52.378;10.400;2023-12-20T12:42:40;3.30;;;1.60;;
58896;SDS011;44677;52.378;10.400;2023-12-20T12:45:07;4.00;;;1.60;;
58896;SDS011;44677;52.378;10.400;2023-12-20T12:47:33;3.00;;;1.20;;
58896;SDS011;44677;52.378;10.400;2023-12-20T12:49:59;3.30;;;1.70;;
58896;SDS011;44677;52.378;10.400;2023-12-20T12:52:25;2.50;;;1.00;;
58896;SDS011;44677;52.378;10.400;2023-12-20T12:54:51;4.70;;;1.20;;
58896;SDS011;44677;52.378;10.400;2023-12-20T12:57:17;2.00;;;1.40;;
58896;SDS011;44677;52.378;10.400;2023-12-20T12:59:43;2.80;;;1.10;;
58896;SDS011;44677;52.378;10.400;2023-12-20T13:02:14;2.20;;;1.00;;
58896;SDS011;44677;52.378;10.400;2023-12-20T13:04:40;2.50;;;1.10;;
58896;SDS011;44677;52.378;10.400;2023-12-20T13:07:06;3.70;;;1.50;;
58896;SDS011;44677;52.378;10.400;2023-12-20T13:09:32;2.40;;;0.90;;
58896;SDS011;44677;52.378;10.400;2023-12-20T13:11:58;4.40;;;1.10;;
58896;SDS011;44677;52.378;10.400;2023-12-20T13:14:24;2.60;;;0.90;;
58896;SDS011;44677;52.378;10.400;2023-12-20T13:16:49;2.10;;;0.80;;
58896;SDS011;44677;52.378;10.400;2023-12-20T13:19:15;3.10;;;1.00;;
58896;SDS011;44677;52.378;10.400;2023-12-20T13:21:40;3.10;;;0.90;;
58896;SDS011;44677;52.378;10.400;2023-12-20T13:24:06;2.90;;;1.00;;
58896;SDS011;44677;52.378;10.400;2023-12-20T13:26:31;3.10;;;1.00;;
58896;SDS011;44677;52.378;10.400;2023-12-20T13:28:58;4.40;;;1.10;;
58896;SDS011;44677;52.378;10.400;2023-12-20T13:31:23;3.00;;;0.90;;
58896;SDS011;44677;52.378;10.400;2023-12-20T13:33:49;2.30;;;0.90;;
58896;SDS011;44677;52.378;10.400;2023-12-20T13:36:14;5.30;;;0.70;;
58896;SDS011;44677;52.378;10.400;2023-12-20T13:38:40;4.70;;;1.30;;
58896;SDS011;44677;52.378;10.400;2023-12-20T13:41:05;3.60;;;0.90;;
58896;SDS011;44677;52.378;10.400;2023-12-20T13:43:31;2.70;;;0.80;;
58896;SDS011;44677;52.378;10.400;2023-12-20T13:46:06;4.20;;;1.00;;
58896;SDS011;44677;52.378;10.400;2023-12-20T13:48:32;5.20;;;1.20;;
58896;SDS011;44677;52.378;10.400;2023-12-20T13:51:35;3.30;;;0.90;;
58896;SDS011;44677;52.378;10.400;2023-12-20T13:54:54;1.80;;;0.90;;
58896;SDS011;44677;52.378;10.400;2023-12-20T13:57:36;5.40;;;1.20;;
58896;SDS011;44677;52.378;10.400;2023-12-20T14:00:15;4.10;;;1.30;;
58896;SDS011;44677;52.378;10.400;2023-12-20T14:02:52;8.20;;;1.60;;
58896;SDS011;44677;52.378;10.400;2023-12-20T14:05:24;5.00;;;1.20;;
58896;SDS011;44677;52.378;10.400;2023-12-20T14:10:17;6.80;;;1.00;;
58896;SDS011;44677;52.378;10.400;2023-12-20T14:12:47;5.20;;;1.40;;
58896;SDS011;44677;52.378;10.400;2023-12-20T14:15:13;3.00;;;0.80;;
58896;SDS011;44677;52.378;10.400;2023-12-20T14:17:38;6.40;;;1.10;;
58896;SDS011;44677;52.378;10.400;2023-12-20T14:20:07;3.50;;;1.00;;
58896;SDS011;44677;52.378;10.400;2023-12-20T14:22:33;3.70;;;1.20;;
58896;SDS011;44677;52.378;10.400;2023-12-20T14:24:59;4.20;;;1.30;;
58896;SDS011;44677;52.378;10.400;2023-12-20T14:27:24;4.00;;;1.30;;
58896;SDS011;44677;52.378;10.400;2023-12-20T14:29:56;6.20;;;1.30;;
58896;SDS011;44677;52.378;10.400;2023-12-20T14:32:21;4.80;;;1.20;;
58896;SDS011;44677;52.378;10.400;2023-12-20T14:34:47;4.60;;;1.30;;
58896;SDS011;44677;52.378;10.400;2023-12-20T14:37:12;3.10;;;1.30;;
58896;SDS011;44677;52.378;10.400;2023-12-20T14:39:38;4.10;;;1.30;;
58896;SDS011;44677;52.378;10.400;2023-12-20T14:42:09;7.00;;;1.50;;
58896;SDS011;44677;52.378;10.400;2023-12-20T14:44:38;3.70;;;1.30;;
58896;SDS011;44677;52.378;10.400;2023-12-20T14:47:04;4.70;;;1.20;;
58896;SDS011;44677;52.378;10.400;2023-12-20T14:49:30;2.70;;;1.40;;
58896;SDS011;44677;52.378;10.400;2023-12-20T14:51:56;4.70;;;1.40;;
58896;SDS011;44677;52.378;10.400;2023-12-20T14:54:21;6.70;;;1.20;;
58896;SDS011;44677;52.378;10.400;2023-12-20T14:56:47;8.00;;;1.70;;
58896;SDS011;44677;52.378;10.400;2023-12-20T14:59:13;4.20;;;1.50;;
58896;SDS011;44677;52.378;10.400;2023-12-20T15:01:38;5.60;;;1.30;;
58896;SDS011;44677;52.378;10.400;2023-12-20T15:06:31;3.60;;;1.20;;
58896;SDS011;44677;52.378;10.400;2023-12-20T15:08:57;5.60;;;2.00;;
58896;SDS011;44677;52.378;10.400;2023-12-20T15:11:23;6.60;;;1.60;;